SPQU/AQP METAR and TAF weather

Enter ICAO airport designator
Station Type Date Time Source
SPQU METAR 2019/08/24 18:00 UTC NOAA

SPQU 241800Z 25010KT 210V280 9999 FEW120 23/M08 Q1027 NOSIG RMK PP000


Station Type Date Time Source
SPQU Decoded METAR 2019/08/24 18:00 UTC NOAA

Station name not available
Aug 24, 2019 - 02:00 PM EDT / 2019.08.24 1800 UTC
Wind: from the WSW (250 degrees) at 12 MPH (10 KT) (direction variable):0
Visibility: greater than 7 mile(s):0
Sky conditions: mostly clear
Temperature: 73 F (23 C)
Dew Point: 17 F (-8 C)
Relative Humidity: 11%
Pressure (altimeter): 30.33 in. Hg (1027 hPa)
ob: SPQU 241800Z 25010KT 210V280 9999 FEW120 23/M08 Q1027 NOSIG RMK PP000
cycle: 18

Station Type Date Time Source
SPQU TAF 2019/08/24 18:36 UTC NOAA

TAF SPQU 241700Z 2418/2518 25010KT CAVOK TX22/2418Z TN09/2510Z
FM250100 03005KT CAVOK
FM251430 25007KT CAVOK

Example: see airport list